Terminal Aerodrome Forecast
Issued by NWS Northern Indiana

Home | Current Version | Previous Version | Text Only | Print | Product List | Glossary On
Versions: 1 2 3 4 5 6 7 8 9 10 11 12
000
FTUS43 KIWX 251120
TAFFWA
TAF
KFWA 251120Z 2512/2612 08005KT P6SM SKC
     FM251400 10005KT P6SM SCT250
     FM260400 16008KT P6SM VCSH SCT060 BKN100
     FM260800 23008KT 5SM -SHRA OVC050=

USA.gov is the U.S. government's official web portal to all federal, state and local government web resources and services.